sensor_id;sensor_type;location;lat;lon;timestamp;pressure;altitude;pressure_sealevel;temperature;humidity
41632;BME280;37452;51.938;4.624;2023-05-01T00:00:18;77454.25;;;-142.75;100.00
41632;BME280;37452;51.938;4.624;2023-05-01T00:02:43;77466.03;;;-142.75;100.00
41632;BME280;37452;51.938;4.624;2023-05-01T00:05:08;77470.00;;;-142.75;100.00
41632;BME280;37452;51.938;4.624;2023-05-01T00:07:33;77487.72;;;-142.75;100.00
41632;BME280;37452;51.938;4.624;2023-05-01T00:09:59;77499.53;;;-142.75;100.00
41632;BME280;37452;51.938;4.624;2023-05-01T00:12:24;77479.84;;;-142.75;100.00
41632;BME280;37452;51.938;4.624;2023-05-01T00:14:50;77477.88;;;-142.75;100.00
41632;BME280;37452;51.938;4.624;2023-05-01T00:17:15;77475.91;;;-142.75;100.00
41632;BME280;37452;51.938;4.624;2023-05-01T00:19:41;77471.97;;;-142.75;100.00
41632;BME280;37452;51.938;4.624;2023-05-01T00:22:06;77468.03;;;-142.75;100.00
41632;BME280;37452;51.938;4.624;2023-05-01T00:24:31;77471.97;;;-142.75;100.00
41632;BME280;37452;51.938;4.624;2023-05-01T00:26:57;77470.00;;;-142.75;100.00
41632;BME280;37452;51.938;4.624;2023-05-01T00:29:22;77456.22;;;-142.75;100.00
41632;BME280;37452;51.938;4.624;2023-05-01T00:31:47;77454.25;;;-142.75;100.00
41632;BME280;37452;51.938;4.624;2023-05-01T00:34:12;77446.34;;;-142.75;100.00
41632;BME280;37452;51.938;4.624;2023-05-01T00:36:38;77440.44;;;-142.75;100.00
41632;BME280;37452;51.938;4.624;2023-05-01T00:39:03;77436.50;;;-142.75;100.00
41632;BME280;37452;51.938;4.624;2023-05-01T00:41:28;77444.38;;;-142.75;100.00
41632;BME280;37452;51.938;4.624;2023-05-01T00:43:53;77436.50;;;-142.75;100.00
41632;BME280;37452;51.938;4.624;2023-05-01T00:46:19;77430.59;;;-142.75;100.00
41632;BME280;37452;51.938;4.624;2023-05-01T00:48:45;77432.56;;;-142.75;100.00
41632;BME280;37452;51.938;4.624;2023-05-01T00:51:10;77414.84;;;-142.75;100.00
41632;BME280;37452;51.938;4.624;2023-05-01T00:53:36;77408.94;;;-142.75;100.00
41632;BME280;37452;51.938;4.624;2023-05-01T00:56:03;77418.78;;;-142.75;100.00
41632;BME280;37452;51.938;4.624;2023-05-01T00:58:29;77410.91;;;-142.75;100.00
41632;BME280;37452;51.938;4.624;2023-05-01T01:00:54;77408.94;;;-142.75;100.00
41632;BME280;37452;51.938;4.624;2023-05-01T01:03:20;77408.94;;;-142.75;100.00
41632;BME280;37452;51.938;4.624;2023-05-01T01:05:47;77410.91;;;-142.75;100.00
41632;BME280;37452;51.938;4.624;2023-05-01T01:10:52;77420.75;;;-142.75;100.00
41632;BME280;37452;51.938;4.624;2023-05-01T01:13:28;77420.75;;;-142.75;100.00
41632;BME280;37452;51.938;4.624;2023-05-01T01:18:28;77408.94;;;-142.75;100.00
41632;BME280;37452;51.938;4.624;2023-05-01T01:21:01;77405.00;;;-142.75;100.00
41632;BME280;37452;51.938;4.624;2023-05-01T01:26:26;77373.50;;;-142.75;100.00
41632;BME280;37452;51.938;4.624;2023-05-01T01:31:46;77385.31;;;-142.75;100.00
41632;BME280;37452;51.938;4.624;2023-05-01T01:34:31;77385.31;;;-142.75;100.00
41632;BME280;37452;51.938;4.624;2023-05-01T01:37:04;77377.44;;;-142.75;100.00
41632;BME280;37452;51.938;4.624;2023-05-01T01:42:07;77367.59;;;-142.75;100.00
41632;BME280;37452;51.938;4.624;2023-05-01T01:47:19;77377.44;;;-142.75;100.00
41632;BME280;37452;51.938;4.624;2023-05-01T01:49:48;77389.25;;;-142.75;100.00
41632;BME280;37452;51.938;4.624;2023-05-01T01:52:15;77381.38;;;-142.75;100.00
41632;BME280;37452;51.938;4.624;2023-05-01T01:54:45;77399.09;;;-142.75;100.00
41632;BME280;37452;51.938;4.624;2023-05-01T01:57:13;77401.06;;;-142.75;100.00
41632;BME280;37452;51.938;4.624;2023-05-01T01:59:40;77405.00;;;-142.75;100.00
41632;BME280;37452;51.938;4.624;2023-05-01T02:02:06;77373.50;;;-142.75;100.00
41632;BME280;37452;51.938;4.624;2023-05-01T02:04:32;77385.31;;;-142.75;100.00
41632;BME280;37452;51.938;4.624;2023-05-01T02:06:58;77369.56;;;-142.75;100.00
41632;BME280;37452;51.938;4.624;2023-05-01T02:09:27;77367.59;;;-142.75;100.00
41632;BME280;37452;51.938;4.624;2023-05-01T02:11:53;77361.69;;;-142.75;100.00
41632;BME280;37452;51.938;4.624;2023-05-01T02:14:20;77369.56;;;-142.75;100.00
41632;BME280;37452;51.938;4.624;2023-05-01T02:16:46;77375.47;;;-142.75;100.00
41632;BME280;37452;51.938;4.624;2023-05-01T02:19:12;77363.66;;;-142.75;100.00
41632;BME280;37452;51.938;4.624;2023-05-01T02:21:38;77371.53;;;-142.75;100.00
41632;BME280;37452;51.938;4.624;2023-05-01T02:24:05;77371.53;;;-142.75;100.00
41632;BME280;37452;51.938;4.624;2023-05-01T02:26:31;77373.50;;;-142.75;100.00
41632;BME280;37452;51.938;4.624;2023-05-01T02:29:02;77389.25;;;-142.75;100.00
41632;BME280;37452;51.938;4.624;2023-05-01T02:31:28;77393.19;;;-142.75;100.00
41632;BME280;37452;51.938;4.624;2023-05-01T02:33:54;77393.19;;;-142.75;100.00
41632;BME280;37452;51.938;4.624;2023-05-01T02:36:19;77383.34;;;-142.75;100.00
41632;BME280;37452;51.938;4.624;2023-05-01T02:38:44;77389.25;;;-142.75;100.00
41632;BME280;37452;51.938;4.624;2023-05-01T02:41:11;77393.19;;;-142.75;100.00
41632;BME280;37452;51.938;4.624;2023-05-01T02:43:37;77375.47;;;-142.75;100.00
41632;BME280;37452;51.938;4.624;2023-05-01T02:46:05;77377.44;;;-142.75;100.00
41632;BME280;37452;51.938;4.624;2023-05-01T02:48:31;77369.56;;;-142.75;100.00
41632;BME280;37452;51.938;4.624;2023-05-01T02:50:57;77389.25;;;-142.75;100.00
41632;BME280;37452;51.938;4.624;2023-05-01T02:53:25;77383.34;;;-142.75;100.00
41632;BME280;37452;51.938;4.624;2023-05-01T02:55:50;77373.50;;;-142.75;100.00
41632;BME280;37452;51.938;4.624;2023-05-01T02:58:18;77371.53;;;-142.75;100.00
41632;BME280;37452;51.938;4.624;2023-05-01T03:00:44;77369.56;;;-142.75;100.00
41632;BME280;37452;51.938;4.624;2023-05-01T03:03:10;77351.84;;;-142.75;100.00
41632;BME280;37452;51.938;4.624;2023-05-01T03:05:36;77349.88;;;-142.75;100.00
41632;BME280;37452;51.938;4.624;2023-05-01T03:08:02;77353.81;;;-142.75;100.00
41632;BME280;37452;51.938;4.624;2023-05-01T03:10:28;77355.78;;;-142.75;100.00
41632;BME280;37452;51.938;4.624;2023-05-01T03:12:53;77345.94;;;-142.75;100.00
41632;BME280;37452;51.938;4.624;2023-05-01T03:15:18;77351.84;;;-142.75;100.00
41632;BME280;37452;51.938;4.624;2023-05-01T03:17:43;77359.72;;;-142.75;100.00
41632;BME280;37452;51.938;4.624;2023-05-01T03:20:09;77351.84;;;-142.75;100.00
41632;BME280;37452;51.938;4.624;2023-05-01T03:22:37;77351.84;;;-142.75;100.00
41632;BME280;37452;51.938;4.624;2023-05-01T03:25:03;77357.75;;;-142.75;100.00
41632;BME280;37452;51.938;4.624;2023-05-01T03:27:28;77353.81;;;-142.75;100.00
41632;BME280;37452;51.938;4.624;2023-05-01T03:29:54;77347.91;;;-142.75;100.00
41632;BME280;37452;51.938;4.624;2023-05-01T03:32:19;77338.06;;;-142.75;100.00
41632;BME280;37452;51.938;4.624;2023-05-01T03:34:45;77355.78;;;-142.75;100.00
41632;BME280;37452;51.938;4.624;2023-05-01T03:37:13;77365.63;;;-142.75;100.00
41632;BME280;37452;51.938;4.624;2023-05-01T03:39:39;77347.91;;;-142.75;100.00
41632;BME280;37452;51.938;4.624;2023-05-01T03:42:04;77343.97;;;-142.75;100.00
41632;BME280;37452;51.938;4.624;2023-05-01T03:44:29;77351.84;;;-142.75;100.00
41632;BME280;37452;51.938;4.624;2023-05-01T03:46:55;77365.63;;;-142.75;100.00
41632;BME280;37452;51.938;4.624;2023-05-01T03:49:20;77375.47;;;-142.75;100.00
41632;BME280;37452;51.938;4.624;2023-05-01T03:51:46;77363.66;;;-142.75;100.00
41632;BME280;37452;51.938;4.624;2023-05-01T03:54:11;77334.13;;;-142.75;100.00
41632;BME280;37452;51.938;4.624;2023-05-01T03:56:36;77322.31;;;-142.75;100.00
41632;BME280;37452;51.938;4.624;2023-05-01T03:59:02;77324.28;;;-142.75;100.00
41632;BME280;37452;51.938;4.624;2023-05-01T04:01:28;77330.19;;;-142.75;100.00
41632;BME280;37452;51.938;4.624;2023-05-01T04:03:53;77312.47;;;-142.75;100.00
41632;BME280;37452;51.938;4.624;2023-05-01T04:06:18;77298.69;;;-142.75;100.00
41632;BME280;37452;51.938;4.624;2023-05-01T04:08:43;77300.66;;;-142.75;100.00
41632;BME280;37452;51.938;4.624;2023-05-01T04:11:09;77292.78;;;-142.75;100.00
41632;BME280;37452;51.938;4.624;2023-05-01T04:13:34;77296.72;;;-142.75;100.00
41632;BME280;37452;51.938;4.624;2023-05-01T04:16:02;77288.84;;;-142.75;100.00
41632;BME280;37452;51.938;4.624;2023-05-01T04:18:27;77292.78;;;-142.75;100.00
41632;BME280;37452;51.938;4.624;2023-05-01T04:20:53;77302.63;;;-142.75;100.00
41632;BME280;37452;51.938;4.624;2023-05-01T04:23:18;77302.63;;;-142.75;100.00
41632;BME280;37452;51.938;4.624;2023-05-01T04:25:44;77298.69;;;-142.75;100.00
41632;BME280;37452;51.938;4.624;2023-05-01T04:28:10;77326.25;;;-142.75;100.00
41632;BME280;37452;51.938;4.624;2023-05-01T04:30:36;77328.22;;;-142.75;100.00
41632;BME280;37452;51.938;4.624;2023-05-01T04:33:01;77318.38;;;-142.75;100.00
41632;BME280;37452;51.938;4.624;2023-05-01T04:35:27;77314.44;;;-142.75;100.00
41632;BME280;37452;51.938;4.624;2023-05-01T04:37:53;77338.06;;;-142.75;100.00
41632;BME280;37452;51.938;4.624;2023-05-01T04:40:18;77318.38;;;-142.75;100.00
41632;BME280;37452;51.938;4.624;2023-05-01T04:42:43;77318.38;;;-142.75;100.00
41632;BME280;37452;51.938;4.624;2023-05-01T04:45:08;77322.31;;;-142.75;100.00
41632;BME280;37452;51.938;4.624;2023-05-01T04:47:34;77300.66;;;-142.75;100.00
41632;BME280;37452;51.938;4.624;2023-05-01T04:49:59;77314.44;;;-142.75;100.00
41632;BME280;37452;51.938;4.624;2023-05-01T04:52:25;77310.50;;;-142.75;100.00
41632;BME280;37452;51.938;4.624;2023-05-01T04:54:50;77316.41;;;-142.75;100.00
41632;BME280;37452;51.938;4.624;2023-05-01T04:57:15;77302.63;;;-142.75;100.00
41632;BME280;37452;51.938;4.624;2023-05-01T04:59:40;77306.56;;;-142.75;100.00
41632;BME280;37452;51.938;4.624;2023-05-01T05:02:06;77302.63;;;-142.75;100.00
41632;BME280;37452;51.938;4.624;2023-05-01T05:04:32;77308.53;;;-142.75;100.00
41632;BME280;37452;51.938;4.624;2023-05-01T05:06:58;77302.63;;;-142.75;100.00
41632;BME280;37452;51.938;4.624;2023-05-01T05:09:23;77302.63;;;-142.75;100.00
41632;BME280;37452;51.938;4.624;2023-05-01T05:11:48;77302.63;;;-142.75;100.00
41632;BME280;37452;51.938;4.624;2023-05-01T05:14:14;77294.75;;;-142.75;100.00
41632;BME280;37452;51.938;4.624;2023-05-01T05:16:39;77290.81;;;-142.75;100.00
41632;BME280;37452;51.938;4.624;2023-05-01T05:19:04;77280.97;;;-142.75;100.00
41632;BME280;37452;51.938;4.624;2023-05-01T05:21:29;77286.88;;;-142.75;100.00
41632;BME280;37452;51.938;4.624;2023-05-01T05:23:55;77280.97;;;-142.75;100.00
41632;BME280;37452;51.938;4.624;2023-05-01T05:26:20;77280.97;;;-142.75;100.00
41632;BME280;37452;51.938;4.624;2023-05-01T05:28:46;77288.84;;;-142.75;100.00
41632;BME280;37452;51.938;4.624;2023-05-01T05:31:11;77282.94;;;-142.75;100.00
41632;BME280;37452;51.938;4.624;2023-05-01T05:33:37;77280.97;;;-142.75;100.00
41632;BME280;37452;51.938;4.624;2023-05-01T05:36:02;77267.19;;;-142.75;100.00
41632;BME280;37452;51.938;4.624;2023-05-01T05:38:27;77263.25;;;-142.75;100.00
41632;BME280;37452;51.938;4.624;2023-05-01T05:40:53;77271.13;;;-142.75;100.00
41632;BME280;37452;51.938;4.624;2023-05-01T05:43:18;77261.28;;;-142.75;100.00
41632;BME280;37452;51.938;4.624;2023-05-01T05:45:44;77259.31;;;-142.75;100.00
41632;BME280;37452;51.938;4.624;2023-05-01T05:48:09;77261.28;;;-142.75;100.00
41632;BME280;37452;51.938;4.624;2023-05-01T05:50:35;77261.28;;;-142.75;100.00
41632;BME280;37452;51.938;4.624;2023-05-01T05:53:00;77223.88;;;-142.75;100.00
41632;BME280;37452;51.938;4.624;2023-05-01T05:55:25;77219.94;;;-142.75;100.00
41632;BME280;37452;51.938;4.624;2023-05-01T05:57:52;77219.94;;;-142.75;100.00
41632;BME280;37452;51.938;4.624;2023-05-01T06:00:17;77235.69;;;-142.75;100.00
41632;BME280;37452;51.938;4.624;2023-05-01T06:02:42;77229.78;;;-142.75;100.00
41632;BME280;37452;51.938;4.624;2023-05-01T06:05:08;77196.31;;;-142.75;100.00
41632;BME280;37452;51.938;4.624;2023-05-01T06:07:34;77202.22;;;-142.75;100.00
41632;BME280;37452;51.938;4.624;2023-05-01T06:09:59;77184.50;;;-142.75;100.00
41632;BME280;37452;51.938;4.624;2023-05-01T06:12:29;77184.50;;;-142.75;100.00
41632;BME280;37452;51.938;4.624;2023-05-01T06:14:55;77178.59;;;-142.75;100.00
41632;BME280;37452;51.938;4.624;2023-05-01T06:17:20;77176.63;;;-142.75;100.00
41632;BME280;37452;51.938;4.624;2023-05-01T06:19:48;77166.78;;;-142.75;100.00
41632;BME280;37452;51.938;4.624;2023-05-01T06:22:16;77166.78;;;-142.75;100.00
41632;BME280;37452;51.938;4.624;2023-05-01T06:24:41;77172.69;;;-142.75;100.00
41632;BME280;37452;51.938;4.624;2023-05-01T06:27:06;77176.63;;;-142.75;100.00
41632;BME280;37452;51.938;4.624;2023-05-01T06:29:32;77174.66;;;-142.75;100.00
41632;BME280;37452;51.938;4.624;2023-05-01T06:31:57;77162.84;;;-142.75;100.00
41632;BME280;37452;51.938;4.624;2023-05-01T06:34:22;77168.75;;;-142.75;100.00
41632;BME280;37452;51.938;4.624;2023-05-01T06:36:48;77168.75;;;-142.75;100.00
41632;BME280;37452;51.938;4.624;2023-05-01T06:39:13;77176.63;;;-142.75;100.00
41632;BME280;37452;51.938;4.624;2023-05-01T06:41:38;77184.50;;;-142.75;100.00
41632;BME280;37452;51.938;4.624;2023-05-01T06:44:03;77164.81;;;-142.75;100.00
41632;BME280;37452;51.938;4.624;2023-05-01T06:46:29;77153.00;;;-142.75;100.00
41632;BME280;37452;51.938;4.624;2023-05-01T06:48:54;77153.00;;;-142.75;100.00
41632;BME280;37452;51.938;4.624;2023-05-01T06:51:19;77168.75;;;-142.75;100.00
41632;BME280;37452;51.938;4.624;2023-05-01T06:53:45;77164.81;;;-142.75;100.00
41632;BME280;37452;51.938;4.624;2023-05-01T06:56:10;77133.31;;;-142.75;100.00
41632;BME280;37452;51.938;4.624;2023-05-01T06:58:35;77151.03;;;-142.75;100.00
41632;BME280;37452;51.938;4.624;2023-05-01T07:01:00;77125.44;;;-142.75;100.00
41632;BME280;37452;51.938;4.624;2023-05-01T07:03:26;77153.00;;;-142.75;100.00
41632;BME280;37452;51.938;4.624;2023-05-01T07:05:51;77119.53;;;-142.75;100.00
41632;BME280;37452;51.938;4.624;2023-05-01T07:08:17;77119.53;;;-142.75;100.00
41632;BME280;37452;51.938;4.624;2023-05-01T07:10:42;77113.63;;;-142.75;100.00
41632;BME280;37452;51.938;4.624;2023-05-01T07:13:07;77099.84;;;-142.75;100.00
41632;BME280;37452;51.938;4.624;2023-05-01T07:15:33;77082.13;;;-142.75;100.00
41632;BME280;37452;51.938;4.624;2023-05-01T07:17:58;77088.03;;;-142.75;100.00
41632;BME280;37452;51.938;4.624;2023-05-01T07:20:25;77070.31;;;-142.75;100.00
41632;BME280;37452;51.938;4.624;2023-05-01T07:22:50;77066.38;;;-142.75;100.00
41632;BME280;37452;51.938;4.624;2023-05-01T07:25:15;77101.81;;;-142.75;100.00
41632;BME280;37452;51.938;4.624;2023-05-01T07:27:41;77084.09;;;-142.75;100.00
41632;BME280;37452;51.938;4.624;2023-05-01T07:30:06;77090.00;;;-142.75;100.00
41632;BME280;37452;51.938;4.624;2023-05-01T07:32:32;77090.00;;;-142.75;100.00
41632;BME280;37452;51.938;4.624;2023-05-01T07:34:57;77093.94;;;-142.75;100.00
41632;BME280;37452;51.938;4.624;2023-05-01T07:37:22;77097.88;;;-142.75;100.00
41632;BME280;37452;51.938;4.624;2023-05-01T07:39:48;77097.88;;;-142.75;100.00
41632;BME280;37452;51.938;4.624;2023-05-01T07:42:13;77097.88;;;-142.75;100.00
41632;BME280;37452;51.938;4.624;2023-05-01T07:44:38;77082.13;;;-142.75;100.00
41632;BME280;37452;51.938;4.624;2023-05-01T07:47:04;77078.19;;;-142.75;100.00
41632;BME280;37452;51.938;4.624;2023-05-01T07:49:33;77070.31;;;-142.75;100.00
41632;BME280;37452;51.938;4.624;2023-05-01T07:51:59;77038.81;;;-142.75;100.00
41632;BME280;37452;51.938;4.624;2023-05-01T07:54:24;77028.97;;;-142.75;100.00
41632;BME280;37452;51.938;4.624;2023-05-01T07:56:49;77023.06;;;-142.75;100.00
41632;BME280;37452;51.938;4.624;2023-05-01T07:59:14;77030.94;;;-142.75;100.00
41632;BME280;37452;51.938;4.624;2023-05-01T08:01:40;77017.16;;;-142.75;100.00
41632;BME280;37452;51.938;4.624;2023-05-01T08:04:05;77011.25;;;-142.75;100.00
41632;BME280;37452;51.938;4.624;2023-05-01T08:06:31;76983.69;;;-142.75;100.00
41632;BME280;37452;51.938;4.624;2023-05-01T08:08:56;77011.25;;;-142.75;100.00
41632;BME280;37452;51.938;4.624;2023-05-01T08:11:21;76967.94;;;-142.75;100.00
41632;BME280;37452;51.938;4.624;2023-05-01T08:13:46;76975.81;;;-142.75;100.00
41632;BME280;37452;51.938;4.624;2023-05-01T08:16:12;76973.84;;;-142.75;100.00
41632;BME280;37452;51.938;4.624;2023-05-01T08:18:37;76962.03;;;-142.75;100.00
41632;BME280;37452;51.938;4.624;2023-05-01T08:21:02;76950.22;;;-142.75;100.00
41632;BME280;37452;51.938;4.624;2023-05-01T08:23:27;76965.97;;;-142.75;100.00
41632;BME280;37452;51.938;4.624;2023-05-01T08:25:53;76971.88;;;-142.75;100.00
41632;BME280;37452;51.938;4.624;2023-05-01T08:28:18;76969.91;;;-142.75;100.00
41632;BME280;37452;51.938;4.624;2023-05-01T08:30:46;76964.00;;;-142.75;100.00
41632;BME280;37452;51.938;4.624;2023-05-01T08:33:13;76952.19;;;-142.75;100.00
41632;BME280;37452;51.938;4.624;2023-05-01T08:35:38;76960.06;;;-142.75;100.00
41632;BME280;37452;51.938;4.624;2023-05-01T08:38:03;76958.09;;;-142.75;100.00
41632;BME280;37452;51.938;4.624;2023-05-01T08:40:30;76956.13;;;-142.75;100.00
41632;BME280;37452;51.938;4.624;2023-05-01T08:42:56;76975.81;;;-142.75;100.00
41632;BME280;37452;51.938;4.624;2023-05-01T08:45:22;76965.97;;;-142.75;100.00
41632;BME280;37452;51.938;4.624;2023-05-01T08:47:47;76956.13;;;-142.75;100.00
41632;BME280;37452;51.938;4.624;2023-05-01T08:50:13;76958.09;;;-142.75;100.00
41632;BME280;37452;51.938;4.624;2023-05-01T08:52:40;76952.19;;;-142.75;100.00
41632;BME280;37452;51.938;4.624;2023-05-01T08:55:12;76956.13;;;-142.75;100.00
41632;BME280;37452;51.938;4.624;2023-05-01T08:57:37;76956.13;;;-142.75;100.00
41632;BME280;37452;51.938;4.624;2023-05-01T09:00:03;76962.03;;;-142.75;100.00
41632;BME280;37452;51.938;4.624;2023-05-01T09:02:29;76954.16;;;-142.75;100.00
41632;BME280;37452;51.938;4.624;2023-05-01T09:04:55;76938.41;;;-142.75;100.00
41632;BME280;37452;51.938;4.624;2023-05-01T09:07:20;76932.50;;;-142.75;100.00
41632;BME280;37452;51.938;4.624;2023-05-01T09:09:46;76924.63;;;-142.75;100.00
41632;BME280;37452;51.938;4.624;2023-05-01T09:12:14;76924.63;;;-142.75;100.00
41632;BME280;37452;51.938;4.624;2023-05-01T09:14:42;76910.84;;;-142.75;100.00
41632;BME280;37452;51.938;4.624;2023-05-01T09:17:07;76902.97;;;-142.75;100.00
41632;BME280;37452;51.938;4.624;2023-05-01T09:19:32;76889.19;;;-142.75;100.00
41632;BME280;37452;51.938;4.624;2023-05-01T09:21:58;76891.16;;;-142.75;100.00
41632;BME280;37452;51.938;4.624;2023-05-01T09:24:23;76879.34;;;-142.75;100.00
41632;BME280;37452;51.938;4.624;2023-05-01T09:26:49;76865.56;;;-142.75;100.00
41632;BME280;37452;51.938;4.624;2023-05-01T09:32:11;76879.34;;;-142.75;100.00
41632;BME280;37452;51.938;4.624;2023-05-01T09:34:37;76881.31;;;-142.75;100.00
41632;BME280;37452;51.938;4.624;2023-05-01T09:37:02;76873.44;;;-142.75;100.00
41632;BME280;37452;51.938;4.624;2023-05-01T09:39:27;76873.44;;;-142.75;100.00
41632;BME280;37452;51.938;4.624;2023-05-01T09:41:53;76869.50;;;-142.75;100.00
41632;BME280;37452;51.938;4.624;2023-05-01T09:44:18;76875.41;;;-142.75;100.00
41632;BME280;37452;51.938;4.624;2023-05-01T09:46:43;76867.53;;;-142.75;100.00
41632;BME280;37452;51.938;4.624;2023-05-01T09:49:09;76877.38;;;-142.75;100.00
41632;BME280;37452;51.938;4.624;2023-05-01T09:51:34;76873.44;;;-142.75;100.00
41632;BME280;37452;51.938;4.624;2023-05-01T09:54:00;76893.13;;;-142.75;100.00
41632;BME280;37452;51.938;4.624;2023-05-01T09:56:26;76895.09;;;-142.75;100.00
41632;BME280;37452;51.938;4.624;2023-05-01T09:58:52;76916.75;;;-142.75;100.00
41632;BME280;37452;51.938;4.624;2023-05-01T10:01:18;76918.72;;;-142.75;100.00
41632;BME280;37452;51.938;4.624;2023-05-01T10:03:43;76926.59;;;-142.75;100.00
41632;BME280;37452;51.938;4.624;2023-05-01T10:06:09;76944.31;;;-142.75;100.00
41632;BME280;37452;51.938;4.624;2023-05-01T10:08:45;76960.06;;;-142.75;100.00
41632;BME280;37452;51.938;4.624;2023-05-01T10:11:10;76975.81;;;-142.75;100.00
41632;BME280;37452;51.938;4.624;2023-05-01T10:13:35;76960.06;;;-142.75;100.00
41632;BME280;37452;51.938;4.624;2023-05-01T10:16:01;76983.69;;;-142.75;100.00
41632;BME280;37452;51.938;4.624;2023-05-01T10:18:31;77011.25;;;-142.75;100.00
41632;BME280;37452;51.938;4.624;2023-05-01T10:20:57;77019.13;;;-142.75;100.00
41632;BME280;37452;51.938;4.624;2023-05-01T10:23:23;77032.91;;;-142.75;100.00
41632;BME280;37452;51.938;4.624;2023-05-01T10:25:49;77038.81;;;-142.75;100.00
41632;BME280;37452;51.938;4.624;2023-05-01T10:28:16;77046.69;;;-142.75;100.00
41632;BME280;37452;51.938;4.624;2023-05-01T10:30:42;77062.44;;;-142.75;100.00
41632;BME280;37452;51.938;4.624;2023-05-01T10:33:11;77070.31;;;-142.75;100.00
41632;BME280;37452;51.938;4.624;2023-05-01T10:35:38;77062.44;;;-142.75;100.00
41632;BME280;37452;51.938;4.624;2023-05-01T10:38:05;77056.53;;;-142.75;100.00
41632;BME280;37452;51.938;4.624;2023-05-01T10:40:47;77058.50;;;-142.75;100.00
41632;BME280;37452;51.938;4.624;2023-05-01T10:45:38;77060.47;;;-142.75;100.00
41632;BME280;37452;51.938;4.624;2023-05-01T10:48:03;77042.75;;;-142.75;100.00
41632;BME280;37452;51.938;4.624;2023-05-01T10:50:28;77050.63;;;-142.75;100.00
41632;BME280;37452;51.938;4.624;2023-05-01T10:55:38;77042.75;;;-142.75;100.00
41632;BME280;37452;51.938;4.624;2023-05-01T10:58:05;77034.88;;;-142.75;100.00
41632;BME280;37452;51.938;4.624;2023-05-01T11:00:30;77034.88;;;-142.75;100.00
41632;BME280;37452;51.938;4.624;2023-05-01T11:08:28;77046.69;;;-142.75;100.00
41632;BME280;37452;51.938;4.624;2023-05-01T11:10:53;77034.88;;;-142.75;100.00
41632;BME280;37452;51.938;4.624;2023-05-01T11:13:27;77042.75;;;-142.75;100.00
41632;BME280;37452;51.938;4.624;2023-05-01T11:18:47;77015.19;;;-142.75;100.00
41632;BME280;37452;51.938;4.624;2023-05-01T11:21:13;76991.56;;;-142.75;100.00
41632;BME280;37452;51.938;4.624;2023-05-01T11:23:44;76991.56;;;-142.75;100.00
41632;BME280;37452;51.938;4.624;2023-05-01T11:26:10;76991.56;;;-142.75;100.00
41632;BME280;37452;51.938;4.624;2023-05-01T11:28:37;76979.75;;;-142.75;100.00
41632;BME280;37452;51.938;4.624;2023-05-01T11:31:02;76971.88;;;-142.75;100.00
41632;BME280;37452;51.938;4.624;2023-05-01T11:33:27;76960.06;;;-142.75;100.00
41632;BME280;37452;51.938;4.624;2023-05-01T11:35:56;76952.19;;;-142.75;100.00
41632;BME280;37452;51.938;4.624;2023-05-01T11:38:23;76975.81;;;-142.75;100.00
41632;BME280;37452;51.938;4.624;2023-05-01T11:40:52;76952.19;;;-142.75;100.00
41632;BME280;37452;51.938;4.624;2023-05-01T11:43:19;76918.72;;;-142.75;100.00
41632;BME280;37452;51.938;4.624;2023-05-01T11:45:44;76899.03;;;-142.75;100.00
41632;BME280;37452;51.938;4.624;2023-05-01T11:48:15;76914.78;;;-142.75;100.00
41632;BME280;37452;51.938;4.624;2023-05-01T11:50:41;76897.06;;;-142.75;100.00
41632;BME280;37452;51.938;4.624;2023-05-01T11:53:10;76826.19;;;-142.75;100.00
41632;BME280;37452;51.938;4.624;2023-05-01T11:55:42;76790.78;;;-142.75;100.00
41632;BME280;37452;51.938;4.624;2023-05-01T11:58:08;76755.34;;;-142.75;100.00
41632;BME280;37452;51.938;4.624;2023-05-01T12:00:34;76775.03;;;-142.75;100.00
41632;BME280;37452;51.938;4.624;2023-05-01T12:03:05;76769.13;;;-142.75;100.00
41632;BME280;37452;51.938;4.624;2023-05-01T12:05:31;76751.41;;;-142.75;100.00
41632;BME280;37452;51.938;4.624;2023-05-01T12:08:17;76737.63;;;-142.75;100.00
41632;BME280;37452;51.938;4.624;2023-05-01T12:10:43;76729.75;;;-142.75;100.00
41632;BME280;37452;51.938;4.624;2023-05-01T12:13:12;76715.97;;;-142.75;100.00
41632;BME280;37452;51.938;4.624;2023-05-01T12:15:39;76680.53;;;-142.75;100.00
41632;BME280;37452;51.938;4.624;2023-05-01T12:18:04;76664.78;;;-142.75;100.00
41632;BME280;37452;51.938;4.624;2023-05-01T12:23:32;76633.28;;;-142.75;100.00
41632;BME280;37452;51.938;4.624;2023-05-01T12:25:58;76588.00;;;-142.75;100.00
41632;BME280;37452;51.938;4.624;2023-05-01T12:28:23;76562.41;;;-142.75;100.00
41632;BME280;37452;51.938;4.624;2023-05-01T12:30:48;76558.47;;;-142.75;100.00
41632;BME280;37452;51.938;4.624;2023-05-01T12:33:15;76554.53;;;-142.75;100.00
41632;BME280;37452;51.938;4.624;2023-05-01T12:35:41;76479.75;;;-142.75;100.00
41632;BME280;37452;51.938;4.624;2023-05-01T12:40:37;76477.78;;;-142.75;100.00
41632;BME280;37452;51.938;4.624;2023-05-01T12:43:02;76456.13;;;-142.75;100.00
41632;BME280;37452;51.938;4.624;2023-05-01T12:45:27;76467.94;;;-142.75;100.00
41632;BME280;37452;51.938;4.624;2023-05-01T12:47:52;76436.44;;;-142.75;100.00
41632;BME280;37452;51.938;4.624;2023-05-01T12:50:18;76389.19;;;-142.75;100.00
41632;BME280;37452;51.938;4.624;2023-05-01T12:52:43;76408.88;;;-142.75;100.00
41632;BME280;37452;51.938;4.624;2023-05-01T12:55:09;76436.44;;;-142.75;100.00
41632;BME280;37452;51.938;4.624;2023-05-01T12:57:42;76448.25;;;-142.75;100.00
41632;BME280;37452;51.938;4.624;2023-05-01T13:00:14;76452.19;;;-142.75;100.00
41632;BME280;37452;51.938;4.624;2023-05-01T13:02:40;76479.75;;;-142.75;100.00